Time;durP1;ratioP1;P1;durP2;ratioP2;P2;SDS_P1;SDS_P2;PMS_P1;PMS_P2;Temp;Humidity;BMP_temperature;BMP_pressure;BME280_temperature;BME280_humidity;BME280_pressure;Samples;Min_cycle;Max_cycle;Signal;HPM_P1;HPM_P2
2022/09/29 00:00:44;;;;;;;;;;;;;;;;;;;;;
2022/09/29 00:18:54;;;;;;;1.23;1.13;;;6.20;99.90;;;;;;5899368;24;20456;-86
2022/09/29 00:33:58;;;;;;;2.20;1.17;;;6.30;99.90;;;;;;5916209;24;20132;-85
2022/09/29 04:36:08;;;;;;;1.95;1.83;;;6.00;99.90;;;;;;6150929;23;20422;-87
2022/09/29 06:06:59;;;;;;;2.17;2.00;;;6.10;99.90;;;;;;6138937;23;20045;-89
2022/09/29 06:10:52;;;;;;;3.92;3.15;;;6.10;99.90;;;;;;5895573;23;20030;-88
2022/09/29 06:14:52;;;;;;;2.58;2.38;;;6.10;99.90;;;;;;5935717;23;20373;-85
2022/09/29 06:18:15;;;;;;;3.00;2.40;;;6.20;99.90;;;;;;6038885;23;20022;-85
2022/09/29 06:22:17;;;;;;;4.20;2.95;;;6.30;99.90;;;;;;6112501;23;20034;-85
2022/09/29 06:26:04;;;;;;;4.75;3.45;;;6.40;99.90;;;;;;6126528;23;20034;-85
2022/09/29 06:29:26;;;;;;;5.50;3.55;;;6.40;99.90;;;;;;6055695;23;20030;-85
2022/09/29 06:32:25;;;;;;;3.10;2.78;;;6.60;99.90;;;;;;6025502;23;20026;-85
2022/09/29 06:38:11;;;;;;;;;;;6.70;99.90;;;;;;6183409;23;20012;-86
2022/09/29 06:40:39;;;;;;;3.67;2.75;;;6.80;99.90;;;;;;6138362;23;19916;-86
2022/09/29 06:43:06;;;;;;;4.68;3.72;;;6.90;99.90;;;;;;6161164;23;20020;-86
2022/09/29 06:45:40;;;;;;;4.18;3.00;;;7.20;99.90;;;;;;6125109;23;20012;-84
2022/09/29 06:48:10;;;;;;;4.13;3.50;;;7.10;99.90;;;;;;6185417;22;20016;-85
2022/09/29 06:50:41;;;;;;;3.47;3.15;;;7.20;99.90;;;;;;6192197;23;20031;-85
2022/09/29 06:53:08;;;;;;;4.00;3.60;;;7.20;99.90;;;;;;6194693;22;20020;-82
2022/09/29 06:55:36;;;;;;;4.05;3.10;;;7.40;99.90;;;;;;6138335;23;20247;-84
2022/09/29 06:58:06;;;;;;;4.85;3.88;;;7.70;99.90;;;;;;6217425;23;20028;-84
2022/09/29 07:00:37;;;;;;;5.57;5.07;;;7.80;99.90;;;;;;6217905;23;20027;-85
2022/09/29 07:03:07;;;;;;;3.72;3.33;;;7.80;99.90;;;;;;6220813;23;20490;-85
2022/09/29 07:05:38;;;;;;;3.47;2.85;;;8.00;99.90;;;;;;6213942;22;20434;-83
2022/09/29 07:08:07;;;;;;;3.20;2.88;;;8.10;99.90;;;;;;6249969;23;20020;-82
2022/09/29 07:10:34;;;;;;;2.95;2.75;;;8.10;99.90;;;;;;6194036;23;20024;-82
2022/09/29 07:13:02;;;;;;;5.05;3.10;;;8.00;99.90;;;;;;6213628;23;20371;-84
2022/09/29 07:15:32;;;;;;;4.28;2.63;;;8.10;99.90;;;;;;6189316;23;20035;-84
2022/09/29 07:18:01;;;;;;;2.85;2.55;;;8.00;99.90;;;;;;6213954;23;20027;-82
2022/09/29 07:20:32;;;;;;;3.55;2.20;;;8.00;99.90;;;;;;6251333;23;20600;-82
2022/09/29 07:22:59;;;;;;;2.25;2.05;;;8.10;99.90;;;;;;6187717;23;20024;-82
2022/09/29 07:25:28;;;;;;;2.67;2.40;;;8.20;99.90;;;;;;6199463;23;20016;-82
2022/09/29 07:28:16;;;;;;;2.75;2.55;;;8.30;99.90;;;;;;6224295;23;20016;-83
2022/09/29 07:30:46;;;;;;;3.17;2.60;;;8.30;99.90;;;;;;6188102;23;20028;-83
2022/09/29 07:33:16;;;;;;;2.20;2.00;;;8.40;99.90;;;;;;6224134;23;20338;-83
2022/09/29 07:35:51;;;;;;;3.13;2.92;;;8.60;99.90;;;;;;6239110;23;20035;-82
2022/09/29 07:38:20;;;;;;;2.53;2.33;;;8.50;99.90;;;;;;6246642;22;20473;-82
2022/09/29 07:40:47;;;;;;;2.85;2.28;;;8.50;99.90;;;;;;6189193;23;20016;-82
2022/09/29 07:43:15;;;;;;;2.33;2.03;;;8.40;99.90;;;;;;6205092;23;20495;-82
2022/09/29 07:45:50;;;;;;;3.30;2.42;;;8.30;99.90;;;;;;6129126;23;20021;-82
2022/09/29 07:48:20;;;;;;;1.83;1.63;;;8.40;99.90;;;;;;6190463;23;20032;-82
2022/09/29 07:50:48;;;;;;;3.05;2.53;;;8.30;99.90;;;;;;6152917;23;20029;-83
2022/09/29 07:53:15;;;;;;;4.28;2.28;;;8.20;99.90;;;;;;6154071;23;20013;-82
2022/09/29 07:55:43;;;;;;;2.90;1.55;;;8.20;99.90;;;;;;6154223;23;20460;-82
2022/09/29 07:58:11;;;;;;;2.78;2.08;;;8.20;99.90;;;;;;6209588;23;20048;-82
2022/09/29 08:00:38;;;;;;;2.53;1.95;;;8.30;99.90;;;;;;6178894;23;20025;-82
2022/09/29 08:03:06;;;;;;;3.45;2.67;;;8.40;99.90;;;;;;6182637;23;20033;-82
2022/09/29 08:05:35;;;;;;;16.30;4.07;;;8.40;99.90;;;;;;6162858;23;20448;-82
2022/09/29 08:08:04;;;;;;;3.35;3.05;;;8.40;99.90;;;;;;6203262;23;20021;-82
2022/09/29 08:10:32;;;;;;;3.88;2.17;;;8.40;99.90;;;;;;6178378;23;20469;-82
2022/09/29 08:13:13;;;;;;;3.00;2.55;;;8.50;99.90;;;;;;6189823;23;20333;-83
2022/09/29 08:15:41;;;;;;;2.92;2.20;;;8.60;99.90;;;;;;6180686;23;20021;-83
2022/09/29 08:18:09;;;;;;;2.60;2.40;;;8.60;99.90;;;;;;6178089;23;20040;-82
2022/09/29 08:20:42;;;;;;;1.83;1.73;;;8.70;99.90;;;;;;6151860;23;20036;-84
2022/09/29 08:23:09;;;;;;;1.63;1.52;;;8.80;99.90;;;;;;6127019;23;20029;-83
2022/09/29 08:25:37;;;;;;;1.95;1.70;;;8.80;99.90;;;;;;6177086;23;20021;-83
2022/09/29 08:28:04;;;;;;;2.85;2.35;;;8.90;99.90;;;;;;6162433;23;20833;-82
2022/09/29 08:30:32;;;;;;;1.35;1.25;;;9.10;99.90;;;;;;6183527;23;20025;-83
2022/09/29 08:33:00;;;;;;;1.83;1.60;;;9.10;99.90;;;;;;6164239;23;20013;-82
2022/09/29 08:35:30;;;;;;;2.05;1.80;;;9.40;99.90;;;;;;6153899;23;20021;-82
2022/09/29 08:38:04;;;;;;;1.75;1.65;;;9.40;99.90;;;;;;6187308;23;20021;-83
2022/09/29 08:40:32;;;;;;;2.90;2.65;;;9.30;99.90;;;;;;6188130;23;20013;-86
2022/09/29 08:43:23;;;;;;;1.75;1.50;;;9.30;99.90;;;;;;6170633;23;20032;-82
2022/09/29 08:46:08;;;;;;;1.60;1.50;;;9.20;99.90;;;;;;6184825;23;20016;-83
2022/09/29 08:48:44;;;;;;;1.50;1.13;;;9.10;99.90;;;;;;6211118;23;20024;-84
2022/09/29 08:51:36;;;;;;;1.30;1.20;;;9.10;99.90;;;;;;6186207;23;20023;-83
2022/09/29 08:54:32;;;;;;;1.38;1.23;;;9.00;99.90;;;;;;6237837;23;20027;-84
2022/09/29 08:57:15;;;;;;;1.27;1.13;;;9.20;99.90;;;;;;6223858;23;20020;-84
2022/09/29 08:59:56;;;;;;;1.63;1.52;;;9.30;99.90;;;;;;6210276;23;20020;-84
2022/09/29 09:02:23;;;;;;;1.00;1.00;;;9.30;99.90;;;;;;6247032;23;20712;-82
2022/09/29 09:05:16;;;;;;;0.70;0.70;;;9.30;99.90;;;;;;6252973;23;20012;-82
2022/09/29 09:08:04;;;;;;;0.80;0.80;;;9.30;99.90;;;;;;6241229;22;20020;-82
2022/09/29 09:10:46;;;;;;;4.97;3.75;;;9.30;99.90;;;;;;6238033;23;20027;-83
2022/09/29 09:14:13;;;;;;;0.88;0.88;;;9.30;99.90;;;;;;6251438;23;20034;-82
2022/09/29 09:16:47;;;;;;;1.30;0.93;;;9.30;99.90;;;;;;6163163;23;20551;-83
2022/09/29 09:19:32;;;;;;;0.75;0.75;;;9.50;99.90;;;;;;6152735;23;20036;-84
2022/09/29 09:22:13;;;;;;;1.65;1.13;;;9.50;99.90;;;;;;6228693;22;20466;-82
2022/09/29 09:24:46;;;;;;;0.88;0.85;;;9.70;99.90;;;;;;6215637;23;20012;-83
2022/09/29 09:27:24;;;;;;;1.67;1.58;;;9.80;99.90;;;;;;6243367;23;20458;-84
2022/09/29 09:30:12;;;;;;;1.75;0.90;;;9.90;99.90;;;;;;6214045;23;20016;-83
2022/09/29 09:32:53;;;;;;;0.80;0.80;;;9.80;99.90;;;;;;6225705;23;20015;-83
2022/09/29 09:35:39;;;;;;;1.67;1.00;;;9.90;99.90;;;;;;6217322;23;20613;-83
2022/09/29 09:39:00;;;;;;;0.63;0.63;;;10.10;99.90;;;;;;6246688;22;20035;-82
2022/09/29 09:41:29;;;;;;;0.80;0.80;;;10.00;99.90;;;;;;6239573;23;20478;-84
2022/09/29 09:44:12;;;;;;;0.93;0.90;;;9.90;99.90;;;;;;6238517;23;20035;-85
2022/09/29 09:46:50;;;;;;;1.23;1.05;;;9.80;99.90;;;;;;6219904;23;20024;-84
2022/09/29 09:49:28;;;;;;;0.75;0.75;;;9.90;99.90;;;;;;6215234;23;20020;-86
2022/09/29 09:52:03;;;;;;;1.67;1.42;;;9.90;99.90;;;;;;6213364;23;20332;-85
2022/09/29 09:54:43;;;;;;;1.30;1.20;;;9.90;99.90;;;;;;6244800;23;20023;-84
2022/09/29 09:57:42;;;;;;;2.05;1.10;;;10.00;99.90;;;;;;6249816;23;20012;-85
2022/09/29 10:00:40;;;;;;;0.70;0.70;;;10.10;99.90;;;;;;6187818;23;20031;-85
2022/09/29 10:03:09;;;;;;;1.02;1.00;;;10.00;99.90;;;;;;6243782;22;20462;-84
2022/09/29 10:05:59;;;;;;;1.23;0.80;;;10.00;99.90;;;;;;6249272;22;20031;-84
2022/09/29 10:08:28;;;;;;;0.80;0.80;;;10.00;99.90;;;;;;6252362;23;20020;-86
2022/09/29 10:10:57;;;;;;;1.13;1.00;;;10.10;99.90;;;;;;6243493;23;20020;-83
2022/09/29 10:13:31;;;;;;;1.23;1.00;;;10.10;99.90;;;;;;6265414;22;20023;-83
2022/09/29 10:16:22;;;;;;;0.88;0.88;;;10.10;99.90;;;;;;6237726;23;20024;-84
2022/09/29 10:18:54;;;;;;;7.85;1.13;;;10.10;99.90;;;;;;6187840;23;20031;-84
2022/09/29 10:21:43;;;;;;;1.58;1.35;;;10.00;99.90;;;;;;6188295;23;20024;-83
2022/09/29 10:24:22;;;;;;;1.52;1.40;;;9.90;99.90;;;;;;6271971;22;20043;-83
2022/09/29 10:26:54;;;;;;;4.10;1.48;;;10.00;99.90;;;;;;6212792;23;20032;-83
2022/09/29 10:29:23;;;;;;;;;;;10.10;99.90;;;;;;6249359;23;20440;-83
2022/09/29 10:32:04;;;;;;;1.77;1.67;;;10.10;99.90;;;;;;6209782;23;19926;-83
2022/09/29 10:34:35;;;;;;;2.10;1.88;;;10.10;99.90;;;;;;6242858;23;20024;-84
2022/09/29 10:37:06;;;;;;;2.60;2.40;;;10.10;99.90;;;;;;6249581;23;20012;-83
2022/09/29 10:39:44;;;;;;;;;;;10.10;99.90;;;;;;6240968;23;20032;-86
2022/09/29 10:42:20;;;;;;;2.00;1.90;;;10.10;99.90;;;;;;6211911;23;19943;-86
2022/09/29 10:45:11;;;;;;;2.50;2.30;;;10.10;99.90;;;;;;6250458;23;20016;-85
2022/09/29 11:48:38;;;;;;;2.97;2.78;;;10.10;99.90;;;;;;6197493;22;20019;-90
2022/09/29 13:23:06;;;;;;;1.45;1.30;;;9.40;99.90;;;;;;6128752;23;20025;31
2022/09/29 13:26:15;;;;;;;2.40;1.73;;;9.30;99.90;;;;;;6120439;23;20025;-85
2022/09/29 13:28:47;;;;;;;1.85;1.30;;;9.30;99.90;;;;;;6121305;23;20017;-85
2022/09/29 13:31:24;;;;;;;2.00;1.83;;;9.30;99.90;;;;;;6122952;23;20037;-85
2022/09/29 13:34:00;;;;;;;4.43;2.13;;;9.30;99.90;;;;;;6118909;23;20037;-85
2022/09/29 13:36:39;;;;;;;1.70;1.60;;;9.20;99.90;;;;;;6120869;23;20022;-84
2022/09/29 13:39:22;;;;;;;1.70;1.60;;;9.20;99.90;;;;;;6123744;23;20041;-85
2022/09/29 13:41:55;;;;;;;2.00;1.73;;;9.10;99.90;;;;;;6095425;23;20030;-85
2022/09/29 13:44:26;;;;;;;4.50;1.45;;;9.10;99.90;;;;;;6106861;23;20018;-86
2022/09/29 13:46:55;;;;;;;3.67;2.25;;;9.10;99.90;;;;;;6095646;23;20729;-86
2022/09/29 13:49:27;;;;;;;3.33;1.65;;;9.10;99.90;;;;;;6132058;23;20457;-86
2022/09/29 13:52:11;;;;;;;1.60;1.50;;;9.10;99.90;;;;;;6095410;23;20026;-85
2022/09/29 13:54:42;;;;;;;2.00;1.70;;;9.10;99.90;;;;;;6048152;23;20018;-85
2022/09/29 13:57:18;;;;;;;1.80;1.70;;;9.10;99.90;;;;;;6121030;23;20018;-87
2022/09/29 14:58:42;;;;;;;;;;;;;;;;;;;;;
2022/09/29 17:17:44;;;;;;;4.78;4.38;;;8.40;99.90;;;;;;6194389;23;20558;-89
2022/09/29 17:20:47;;;;;;;4.38;3.97;;;8.30;99.90;;;;;;6179822;23;20016;-94
2022/09/29 17:23:26;;;;;;;5.15;4.65;;;8.30;99.90;;;;;;6191414;23;20031;-83
2022/09/29 17:29:45;;;;;;;6.05;4.70;;;8.30;99.90;;;;;;6191851;23;20026;-89
2022/09/29 17:32:31;;;;;;;4.85;3.83;;;8.30;99.90;;;;;;6172366;23;20027;-86
2022/09/29 17:35:06;;;;;;;4.72;3.42;;;8.20;99.90;;;;;;6214731;23;20024;-86
2022/09/29 17:37:48;;;;;;;5.60;5.10;;;8.10;99.90;;;;;;6190551;22;20016;-83
2022/09/29 17:40:24;;;;;;;4.22;3.92;;;8.10;99.90;;;;;;6245799;23;20340;-86
2022/09/29 17:42:57;;;;;;;5.05;4.20;;;8.10;99.90;;;;;;6242823;23;20035;-82
2022/09/29 17:45:26;;;;;;;5.18;4.78;;;8.10;99.90;;;;;;6198700;23;20392;-85
2022/09/29 17:47:54;;;;;;;4.85;4.45;;;8.00;99.90;;;;;;6217905;23;20784;-86
2022/09/29 17:50:40;;;;;;;4.05;3.65;;;8.00;99.90;;;;;;6193824;23;20031;-84
2022/09/29 17:53:10;;;;;;;5.22;4.82;;;8.00;99.90;;;;;;6217991;23;20024;-87
2022/09/29 17:55:41;;;;;;;4.97;3.63;;;8.00;99.90;;;;;;6217564;23;20452;-85
2022/09/29 17:58:17;;;;;;;4.55;4.13;;;8.00;99.90;;;;;;6214527;23;20024;-85
2022/09/29 18:00:49;;;;;;;3.67;3.38;;;8.00;99.90;;;;;;6190664;23;20032;-87
2022/09/29 18:03:33;;;;;;;5.63;4.15;;;8.10;99.90;;;;;;6214180;23;20031;-88
2022/09/29 18:06:37;;;;;;;3.70;3.40;;;8.10;99.90;;;;;;6247650;23;20355;-90
2022/09/29 18:09:24;;;;;;;5.03;3.30;;;8.10;99.90;;;;;;6218272;23;20016;-88
2022/09/29 18:12:02;;;;;;;4.10;3.80;;;8.00;99.90;;;;;;6115263;23;20030;-87
2022/09/29 18:14:40;;;;;;;4.00;3.67;;;8.00;99.90;;;;;;6077938;23;20037;-90
2022/09/29 20:16:04;;;;;;;5.00;4.50;;;7.90;99.90;;;;;;6153805;23;20726;-87
2022/09/29 20:18:36;;;;;;;4.28;3.88;;;7.80;99.90;;;;;;6157019;23;20607;-88
2022/09/29 20:21:06;;;;;;;5.32;3.88;;;7.70;99.90;;;;;;6142120;23;20336;-87
2022/09/29 20:23:38;;;;;;;4.30;3.55;;;7.70;99.90;;;;;;6240081;22;20028;-87
2022/09/29 20:26:09;;;;;;;3.97;3.55;;;7.70;99.90;;;;;;6225238;23;20019;-87
2022/09/29 20:28:41;;;;;;;4.53;4.10;;;7.70;99.90;;;;;;6169770;23;20727;-87
2022/09/29 20:31:09;;;;;;;17.45;9.07;;;7.70;99.90;;;;;;6190831;23;20039;-87
2022/09/29 20:33:37;;;;;;;84.82;34.15;;;7.70;99.90;;;;;;6227109;22;20639;-87
2022/09/29 20:36:37;;;;;;;8.25;5.80;;;7.70;99.90;;;;;;6218631;23;20019;-87
2022/09/29 20:39:05;;;;;;;4.88;4.20;;;7.60;99.90;;;;;;6217592;23;20024;-87
2022/09/29 20:41:33;;;;;;;5.25;4.57;;;7.70;99.90;;;;;;6216188;22;20012;-87
2022/09/29 20:44:03;;;;;;;6.55;5.82;;;7.70;99.90;;;;;;6203550;23;20020;-88
2022/09/29 20:46:31;;;;;;;9.77;6.00;;;7.70;99.90;;;;;;6192110;23;20024;-87
2022/09/29 20:49:01;;;;;;;5.53;4.90;;;7.70;99.90;;;;;;6218189;23;20027;-88
2022/09/29 20:51:31;;;;;;;4.60;4.25;;;7.70;99.90;;;;;;6192042;23;20035;-87
2022/09/29 20:54:04;;;;;;;5.20;4.68;;;7.60;99.90;;;;;;6225659;23;20023;-86
2022/09/29 20:56:39;;;;;;;11.85;9.63;;;7.60;99.90;;;;;;6217883;23;20028;-87
2022/09/29 20:59:10;;;;;;;23.38;15.88;;;7.60;99.90;;;;;;6249680;22;20032;-87
2022/09/29 21:01:38;;;;;;;14.63;10.35;;;7.70;99.90;;;;;;6194493;23;20016;-87
2022/09/29 21:04:12;;;;;;;9.32;5.20;;;7.60;99.90;;;;;;6244688;23;20020;-86
2022/09/29 21:06:46;;;;;;;9.82;6.85;;;7.50;99.90;;;;;;6194184;23;20459;-87
2022/09/29 21:09:23;;;;;;;4.55;4.07;;;7.60;99.90;;;;;;6205261;23;20008;-86
2022/09/29 21:11:55;;;;;;;;;;;7.70;99.90;;;;;;6169845;23;20711;-86
2022/09/29 21:14:25;;;;;;;3.63;3.33;;;7.60;99.90;;;;;;6219588;23;19915;-87
2022/09/29 21:16:53;;;;;;;4.90;4.18;;;7.70;99.90;;;;;;6220328;23;20448;-86
2022/09/29 21:19:24;;;;;;;6.25;4.40;;;7.70;99.90;;;;;;6222048;23;20028;-87
2022/09/29 21:21:55;;;;;;;27.48;15.40;;;7.70;99.90;;;;;;6227972;23;20023;-87
2022/09/29 21:24:23;;;;;;;13.20;11.90;;;7.70;99.90;;;;;;6230349;23;20008;-86
2022/09/29 21:26:51;;;;;;;13.98;8.10;;;7.60;99.90;;;;;;6198855;23;20020;-86
2022/09/29 21:29:19;;;;;;;6.88;6.18;;;7.60;99.90;;;;;;6195282;23;20749;-86
2022/09/29 21:31:47;;;;;;;5.35;4.55;;;7.60;99.90;;;;;;6244436;23;20722;-86
2022/09/29 21:34:15;;;;;;;7.25;5.35;;;7.60;99.90;;;;;;6252060;22;20024;-86
2022/09/29 21:36:49;;;;;;;19.80;6.22;;;7.50;99.90;;;;;;6194834;23;20023;-86
2022/09/29 21:39:17;;;;;;;6.60;5.70;;;7.50;99.90;;;;;;6194781;23;20024;-86
2022/09/29 21:41:45;;;;;;;6.43;5.75;;;7.60;99.90;;;;;;6251662;22;20016;-87
2022/09/29 21:44:18;;;;;;;11.10;5.85;;;7.60;99.90;;;;;;6220147;23;20035;-86
2022/09/29 21:46:46;;;;;;;7.97;6.72;;;7.50;99.90;;;;;;6250841;23;20082;-86
2022/09/29 21:49:15;;;;;;;8.50;5.45;;;7.60;99.90;;;;;;6195582;23;20463;-86
2022/09/29 21:51:47;;;;;;;7.82;5.57;;;7.60;99.90;;;;;;6194390;23;20028;-86
2022/09/29 21:54:17;;;;;;;7.30;4.80;;;7.60;99.90;;;;;;6225641;23;20024;-86
2022/09/29 21:56:46;;;;;;;6.82;5.50;;;7.60;99.90;;;;;;6254989;23;20336;-86
2022/09/29 21:59:17;;;;;;;7.55;4.57;;;7.60;99.90;;;;;;6218896;23;20024;-86
2022/09/29 22:01:45;;;;;;;5.75;4.97;;;7.50;99.90;;;;;;6193969;23;20035;-86
2022/09/29 22:04:14;;;;;;;7.07;6.47;;;7.60;99.90;;;;;;6219817;23;20024;-86
2022/09/29 22:06:46;;;;;;;6.30;5.63;;;7.60;99.90;;;;;;6169522;23;20039;-86
2022/09/29 22:09:18;;;;;;;6.40;4.40;;;7.60;99.90;;;;;;6256394;23;20304;-86
2022/09/29 22:11:48;;;;;;;4.20;3.80;;;7.70;99.90;;;;;;6219463;23;20024;-86
2022/09/29 22:14:17;;;;;;;7.55;4.82;;;7.60;99.90;;;;;;6251512;22;20020;-86
2022/09/29 22:16:48;;;;;;;5.40;4.88;;;7.70;99.90;;;;;;6219548;23;20023;-86
2022/09/29 22:19:15;;;;;;;5.07;3.95;;;7.60;99.90;;;;;;6193999;23;20031;-85
2022/09/29 22:21:54;;;;;;;5.38;4.45;;;7.60;99.90;;;;;;6193641;22;20016;-86
2022/09/29 22:24:23;;;;;;;5.43;4.80;;;7.60;99.90;;;;;;6255594;23;20016;-86
2022/09/29 22:26:51;;;;;;;5.47;4.97;;;7.60;99.90;;;;;;6217370;23;20028;-86
2022/09/29 22:29:21;;;;;;;10.10;4.35;;;7.60;99.90;;;;;;6206201;23;20012;-86
2022/09/29 22:31:49;;;;;;;5.63;5.13;;;7.70;99.90;;;;;;6218557;23;20020;-86
2022/09/29 22:34:19;;;;;;;5.80;5.00;;;7.60;99.90;;;;;;6194435;23;20012;-86
2022/09/29 22:36:53;;;;;;;7.25;4.40;;;7.70;99.90;;;;;;6169861;23;20027;-86
2022/09/29 22:39:21;;;;;;;5.18;3.72;;;7.60;99.90;;;;;;6218596;23;20035;-86
2022/09/29 22:41:52;;;;;;;5.95;5.43;;;7.60;99.90;;;;;;6202830;23;20012;-85
2022/09/29 22:44:19;;;;;;;8.15;6.25;;;7.50;99.90;;;;;;6230450;23;20486;-86
2022/09/29 22:46:49;;;;;;;6.40;5.80;;;7.50;99.90;;;;;;6244077;22;20024;-86
2022/09/29 22:49:16;;;;;;;7.18;5.78;;;7.50;99.90;;;;;;6219514;23;20027;-86
2022/09/29 22:51:44;;;;;;;6.18;5.60;;;7.50;99.90;;;;;;6168575;23;20028;-86
2022/09/29 22:54:14;;;;;;;6.03;5.45;;;7.50;99.90;;;;;;6226277;22;20031;-86
2022/09/29 22:56:42;;;;;;;7.20;5.78;;;7.50;99.90;;;;;;6254473;23;20416;-86
2022/09/29 22:59:09;;;;;;;6.90;6.10;;;7.50;99.90;;;;;;6218157;23;20024;-86
2022/09/29 23:01:37;;;;;;;7.55;6.13;;;7.50;99.90;;;;;;6253463;22;20221;-86
2022/09/29 23:04:05;;;;;;;7.63;6.13;;;7.60;99.90;;;;;;6229545;23;20428;-86
2022/09/29 23:06:39;;;;;;;6.60;5.85;;;7.50;99.90;;;;;;6251604;23;20012;-86
2022/09/29 23:09:09;;;;;;;6.10;5.13;;;7.50;99.90;;;;;;6218897;23;20028;-86
2022/09/29 23:11:39;;;;;;;7.55;5.28;;;7.60;99.90;;;;;;6184259;23;20024;-86
2022/09/29 23:14:07;;;;;;;8.50;4.78;;;7.50;99.90;;;;;;6192832;23;20021;-86
2022/09/29 23:16:34;;;;;;;5.13;4.63;;;7.50;99.90;;;;;;6194422;23;20639;-86
2022/09/29 23:19:02;;;;;;;6.57;4.85;;;7.50;99.90;;;;;;6211656;23;20021;-86
2022/09/29 23:21:30;;;;;;;6.43;5.75;;;7.40;99.90;;;;;;6158106;23;20023;-86
2022/09/29 23:23:59;;;;;;;5.60;5.10;;;7.40;99.90;;;;;;6184291;23;20021;-86
2022/09/29 23:26:29;;;;;;;6.80;6.10;;;7.30;99.90;;;;;;6189276;23;20031;-86
2022/09/29 23:28:57;;;;;;;5.88;5.35;;;7.30;99.90;;;;;;6195506;23;20017;-86
2022/09/29 23:31:25;;;;;;;7.47;6.45;;;7.30;99.90;;;;;;6210804;23;20344;-86
2022/09/29 23:33:58;;;;;;;6.55;5.95;;;7.30;99.90;;;;;;6183186;23;20017;-86
2022/09/29 23:36:28;;;;;;;6.18;5.57;;;7.30;99.90;;;;;;6159093;23;20329;-86
2022/09/29 23:39:08;;;;;;;6.53;6.00;;;7.40;99.90;;;;;;6162807;23;20021;-86
2022/09/29 23:41:38;;;;;;;5.68;5.13;;;7.40;99.90;;;;;;6157835;23;20017;-86
2022/09/29 23:44:06;;;;;;;5.20;4.47;;;7.30;99.90;;;;;;6183504;23;20020;-86
2022/09/29 23:46:36;;;;;;;5.68;5.15;;;7.30;99.90;;;;;;6183286;23;20021;-86
2022/09/29 23:49:15;;;;;;;11.27;6.93;;;7.30;99.90;;;;;;6195397;23;20012;-86
2022/09/29 23:51:46;;;;;;;5.60;5.10;;;7.40;99.90;;;;;;6208000;23;20418;-86
2022/09/29 23:54:16;;;;;;;5.25;4.38;;;7.40;99.90;;;;;;6182701;23;20017;-86
2022/09/29 23:56:45;;;;;;;5.72;5.22;;;7.40;99.90;;;;;;6208322;23;20024;-86
2022/09/29 23:59:13;;;;;;;5.50;4.38;;;7.40;99.90;;;;;;6210710;23;20748;-87
